Terminal Aerodrome Forecast
Issued by NWS

Home | Current Version | Previous Version | Text Only | Print | Product List | Glossary On
Versions: 1 2 3 4 5 6 7 8 9 10 11 12 13 14 15 16 17
000
FTUS42 KGSP 221757 CCA
TAFAND
TAF COR
KAND 221757Z 2218/2318 03006KT P6SM OVC010
     FM221900 08006KT P6SM BKN025
     FM230100 06004KT P6SM OVC008
     FM230500 05003KT 2SM BR BKN003
     FM231400 07004KT P6SM BKN003
     FM231700 09005KT P6SM BKN015=

USA.gov is the U.S. government's official web portal to all federal, state and local government web resources and services.